sensor_id;sensor_type;location;lat;lon;timestamp;P1;durP1;ratioP1;P2;durP2;ratioP2
6823;SDS011;58633;49.470;11.004;2022-12-04T00:01:53;134.87;;;53.53;;
6823;SDS011;58633;49.470;11.004;2022-12-04T00:04:19;114.23;;;52.67;;
6823;SDS011;58633;49.470;11.004;2022-12-04T00:06:45;19.13;;;11.97;;
6823;SDS011;58633;49.470;11.004;2022-12-04T00:09:11;14.60;;;8.13;;
6823;SDS011;58633;49.470;11.004;2022-12-04T00:11:37;12.40;;;7.73;;
6823;SDS011;58633;49.470;11.004;2022-12-04T00:14:02;14.97;;;8.90;;
6823;SDS011;58633;49.470;11.004;2022-12-04T00:16:28;12.17;;;8.03;;
6823;SDS011;58633;49.470;11.004;2022-12-04T00:18:55;13.27;;;7.90;;
6823;SDS011;58633;49.470;11.004;2022-12-04T00:21:21;12.80;;;8.03;;
6823;SDS011;58633;49.470;11.004;2022-12-04T00:23:48;14.33;;;8.20;;
6823;SDS011;58633;49.470;11.004;2022-12-04T00:26:18;13.83;;;8.23;;
6823;SDS011;58633;49.470;11.004;2022-12-04T00:28:49;11.80;;;7.67;;
6823;SDS011;58633;49.470;11.004;2022-12-04T00:31:16;12.53;;;7.37;;
6823;SDS011;58633;49.470;11.004;2022-12-04T00:33:46;14.30;;;8.20;;
6823;SDS011;58633;49.470;11.004;2022-12-04T00:36:13;14.37;;;8.20;;
6823;SDS011;58633;49.470;11.004;2022-12-04T00:38:41;10.70;;;7.30;;
6823;SDS011;58633;49.470;11.004;2022-12-04T00:41:09;13.73;;;8.43;;
6823;SDS011;58633;49.470;11.004;2022-12-04T00:43:35;12.00;;;7.73;;
6823;SDS011;58633;49.470;11.004;2022-12-04T00:46:01;12.60;;;8.17;;
6823;SDS011;58633;49.470;11.004;2022-12-04T00:48:26;13.67;;;8.10;;
6823;SDS011;58633;49.470;11.004;2022-12-04T00:50:52;13.60;;;8.57;;
6823;SDS011;58633;49.470;11.004;2022-12-04T00:53:18;15.10;;;8.17;;
6823;SDS011;58633;49.470;11.004;2022-12-04T00:55:44;12.00;;;7.63;;
6823;SDS011;58633;49.470;11.004;2022-12-04T00:58:10;14.03;;;8.27;;
6823;SDS011;58633;49.470;11.004;2022-12-04T01:00:36;43.83;;;21.47;;
6823;SDS011;58633;49.470;11.004;2022-12-04T01:03:03;39.07;;;21.63;;
6823;SDS011;58633;49.470;11.004;2022-12-04T01:05:29;19.37;;;10.50;;
6823;SDS011;58633;49.470;11.004;2022-12-04T01:07:55;15.23;;;8.17;;
6823;SDS011;58633;49.470;11.004;2022-12-04T01:10:21;12.60;;;7.53;;
6823;SDS011;58633;49.470;11.004;2022-12-04T01:12:50;13.07;;;8.03;;
6823;SDS011;58633;49.470;11.004;2022-12-04T01:15:17;13.67;;;8.57;;
6823;SDS011;58633;49.470;11.004;2022-12-04T01:17:43;12.50;;;7.70;;
6823;SDS011;58633;49.470;11.004;2022-12-04T01:20:13;13.20;;;8.00;;
6823;SDS011;58633;49.470;11.004;2022-12-04T01:22:39;14.20;;;8.33;;
6823;SDS011;58633;49.470;11.004;2022-12-04T01:25:05;14.47;;;8.33;;
6823;SDS011;58633;49.470;11.004;2022-12-04T01:27:31;13.17;;;7.97;;
6823;SDS011;58633;49.470;11.004;2022-12-04T01:29:57;14.43;;;8.07;;
6823;SDS011;58633;49.470;11.004;2022-12-04T01:32:23;12.23;;;7.43;;
6823;SDS011;58633;49.470;11.004;2022-12-04T01:34:48;12.60;;;7.67;;
6823;SDS011;58633;49.470;11.004;2022-12-04T01:37:14;13.30;;;8.30;;
6823;SDS011;58633;49.470;11.004;2022-12-04T01:39:40;12.77;;;8.00;;
6823;SDS011;58633;49.470;11.004;2022-12-04T01:42:05;14.70;;;7.90;;
6823;SDS011;58633;49.470;11.004;2022-12-04T01:44:40;12.50;;;8.13;;
6823;SDS011;58633;49.470;11.004;2022-12-04T01:47:07;14.57;;;8.20;;
6823;SDS011;58633;49.470;11.004;2022-12-04T01:49:39;13.50;;;8.43;;
6823;SDS011;58633;49.470;11.004;2022-12-04T01:52:17;14.40;;;8.37;;
6823;SDS011;58633;49.470;11.004;2022-12-04T01:54:48;14.03;;;8.23;;
6823;SDS011;58633;49.470;11.004;2022-12-04T01:57:17;12.10;;;7.80;;
6823;SDS011;58633;49.470;11.004;2022-12-04T02:02:15;12.20;;;7.80;;
6823;SDS011;58633;49.470;11.004;2022-12-04T02:04:43;13.67;;;8.20;;
6823;SDS011;58633;49.470;11.004;2022-12-04T02:07:10;13.40;;;7.97;;
6823;SDS011;58633;49.470;11.004;2022-12-04T02:09:36;13.87;;;8.50;;
6823;SDS011;58633;49.470;11.004;2022-12-04T02:12:09;12.50;;;8.53;;
6823;SDS011;58633;49.470;11.004;2022-12-04T02:17:21;13.07;;;8.20;;
6823;SDS011;58633;49.470;11.004;2022-12-04T02:22:28;13.07;;;8.17;;
6823;SDS011;58633;49.470;11.004;2022-12-04T02:28:22;14.03;;;8.33;;
6823;SDS011;58633;49.470;11.004;2022-12-04T02:30:56;13.60;;;8.57;;
6823;SDS011;58633;49.470;11.004;2022-12-04T02:33:29;12.17;;;8.27;;
6823;SDS011;58633;49.470;11.004;2022-12-04T02:36:09;13.40;;;8.37;;
6823;SDS011;58633;49.470;11.004;2022-12-04T02:38:41;11.73;;;7.37;;
6823;SDS011;58633;49.470;11.004;2022-12-04T02:46:24;12.47;;;7.80;;
6823;SDS011;58633;49.470;11.004;2022-12-04T02:48:58;15.63;;;8.40;;
6823;SDS011;58633;49.470;11.004;2022-12-04T02:51:27;14.37;;;8.50;;
6823;SDS011;58633;49.470;11.004;2022-12-04T02:53:58;11.63;;;7.53;;
6823;SDS011;58633;49.470;11.004;2022-12-04T02:56:27;13.73;;;8.30;;
6823;SDS011;58633;49.470;11.004;2022-12-04T02:58:58;13.43;;;8.10;;
6823;SDS011;58633;49.470;11.004;2022-12-04T03:01:37;11.97;;;7.63;;
6823;SDS011;58633;49.470;11.004;2022-12-04T03:04:08;12.03;;;7.70;;
6823;SDS011;58633;49.470;11.004;2022-12-04T03:06:43;12.23;;;7.67;;
6823;SDS011;58633;49.470;11.004;2022-12-04T03:09:14;12.20;;;8.03;;
6823;SDS011;58633;49.470;11.004;2022-12-04T03:11:45;13.83;;;7.90;;
6823;SDS011;58633;49.470;11.004;2022-12-04T03:14:16;13.00;;;7.60;;
6823;SDS011;58633;49.470;11.004;2022-12-04T03:16:47;12.23;;;8.00;;
6823;SDS011;58633;49.470;11.004;2022-12-04T03:19:21;11.70;;;7.67;;
6823;SDS011;58633;49.470;11.004;2022-12-04T03:21:53;12.87;;;8.20;;
6823;SDS011;58633;49.470;11.004;2022-12-04T03:24:26;12.37;;;7.63;;
6823;SDS011;58633;49.470;11.004;2022-12-04T03:27:11;13.87;;;7.87;;
6823;SDS011;58633;49.470;11.004;2022-12-04T03:29:45;10.57;;;7.30;;
6823;SDS011;58633;49.470;11.004;2022-12-04T03:32:27;11.43;;;7.50;;
6823;SDS011;58633;49.470;11.004;2022-12-04T03:45:57;11.90;;;8.00;;
6823;SDS011;58633;49.470;11.004;2022-12-04T03:48:27;11.83;;;7.43;;
6823;SDS011;58633;49.470;11.004;2022-12-04T03:51:06;12.83;;;7.50;;
6823;SDS011;58633;49.470;11.004;2022-12-04T03:53:40;11.53;;;6.90;;
6823;SDS011;58633;49.470;11.004;2022-12-04T03:56:28;10.13;;;7.10;;
6823;SDS011;58633;49.470;11.004;2022-12-04T03:58:59;11.43;;;7.07;;
6823;SDS011;58633;49.470;11.004;2022-12-04T04:01:31;10.93;;;7.40;;
6823;SDS011;58633;49.470;11.004;2022-12-04T04:04:03;9.57;;;6.70;;
6823;SDS011;58633;49.470;11.004;2022-12-04T04:06:36;11.40;;;7.33;;
6823;SDS011;58633;49.470;11.004;2022-12-04T04:09:08;9.80;;;7.13;;
6823;SDS011;58633;49.470;11.004;2022-12-04T04:14:09;12.37;;;7.30;;
6823;SDS011;58633;49.470;11.004;2022-12-04T04:17:05;12.00;;;7.20;;
6823;SDS011;58633;49.470;11.004;2022-12-04T04:19:55;11.23;;;7.47;;
6823;SDS011;58633;49.470;11.004;2022-12-04T04:22:45;9.70;;;6.50;;
6823;SDS011;58633;49.470;11.004;2022-12-04T04:25:38;9.40;;;6.77;;
6823;SDS011;58633;49.470;11.004;2022-12-04T04:28:25;11.60;;;6.80;;
6823;SDS011;58633;49.470;11.004;2022-12-04T04:30:52;11.33;;;7.20;;
6823;SDS011;58633;49.470;11.004;2022-12-04T04:33:22;10.20;;;7.07;;
6823;SDS011;58633;49.470;11.004;2022-12-04T04:35:52;11.13;;;7.60;;
6823;SDS011;58633;49.470;11.004;2022-12-04T04:38:26;12.50;;;7.47;;
6823;SDS011;58633;49.470;11.004;2022-12-04T04:40:57;10.30;;;6.87;;
6823;SDS011;58633;49.470;11.004;2022-12-04T04:43:30;10.27;;;7.03;;
6823;SDS011;58633;49.470;11.004;2022-12-04T04:46:26;11.63;;;7.30;;
6823;SDS011;58633;49.470;11.004;2022-12-04T04:48:56;10.93;;;7.50;;
6823;SDS011;58633;49.470;11.004;2022-12-04T04:51:25;11.80;;;7.30;;
6823;SDS011;58633;49.470;11.004;2022-12-04T04:53:53;9.77;;;6.63;;
6823;SDS011;58633;49.470;11.004;2022-12-04T04:56:21;11.57;;;7.20;;
6823;SDS011;58633;49.470;11.004;2022-12-04T04:58:47;10.30;;;6.77;;
6823;SDS011;58633;49.470;11.004;2022-12-04T05:01:15;10.97;;;7.20;;
6823;SDS011;58633;49.470;11.004;2022-12-04T05:03:41;10.83;;;7.00;;
6823;SDS011;58633;49.470;11.004;2022-12-04T05:06:08;10.10;;;6.63;;
6823;SDS011;58633;49.470;11.004;2022-12-04T05:08:34;10.43;;;6.87;;
6823;SDS011;58633;49.470;11.004;2022-12-04T05:11:00;11.40;;;6.80;;
6823;SDS011;58633;49.470;11.004;2022-12-04T05:13:27;10.43;;;6.83;;
6823;SDS011;58633;49.470;11.004;2022-12-04T05:18:23;8.90;;;6.73;;
6823;SDS011;58633;49.470;11.004;2022-12-04T05:20:49;11.23;;;7.07;;
6823;SDS011;58633;49.470;11.004;2022-12-04T05:23:15;9.53;;;6.57;;
6823;SDS011;58633;49.470;11.004;2022-12-04T05:25:41;10.40;;;6.87;;
6823;SDS011;58633;49.470;11.004;2022-12-04T05:28:07;10.30;;;7.13;;
6823;SDS011;58633;49.470;11.004;2022-12-04T05:30:33;10.50;;;6.63;;
6823;SDS011;58633;49.470;11.004;2022-12-04T05:32:58;11.97;;;7.33;;
6823;SDS011;58633;49.470;11.004;2022-12-04T05:35:24;12.40;;;7.13;;
6823;SDS011;58633;49.470;11.004;2022-12-04T05:37:50;9.57;;;6.50;;
6823;SDS011;58633;49.470;11.004;2022-12-04T05:40:16;10.47;;;6.47;;
6823;SDS011;58633;49.470;11.004;2022-12-04T05:42:42;11.47;;;6.83;;
6823;SDS011;58633;49.470;11.004;2022-12-04T05:45:08;10.67;;;6.97;;
6823;SDS011;58633;49.470;11.004;2022-12-04T05:47:38;11.43;;;7.13;;
6823;SDS011;58633;49.470;11.004;2022-12-04T05:50:05;9.77;;;6.77;;
6823;SDS011;58633;49.470;11.004;2022-12-04T05:52:32;10.73;;;6.83;;
6823;SDS011;58633;49.470;11.004;2022-12-04T05:54:58;8.83;;;6.73;;
6823;SDS011;58633;49.470;11.004;2022-12-04T05:57:24;10.93;;;7.30;;
6823;SDS011;58633;49.470;11.004;2022-12-04T05:59:50;9.73;;;6.70;;
6823;SDS011;58633;49.470;11.004;2022-12-04T06:02:16;10.00;;;6.87;;
6823;SDS011;58633;49.470;11.004;2022-12-04T06:04:42;9.60;;;6.50;;
6823;SDS011;58633;49.470;11.004;2022-12-04T06:07:09;10.33;;;7.13;;
6823;SDS011;58633;49.470;11.004;2022-12-04T06:09:35;10.50;;;7.03;;
6823;SDS011;58633;49.470;11.004;2022-12-04T06:12:01;9.70;;;6.97;;
6823;SDS011;58633;49.470;11.004;2022-12-04T06:14:27;9.30;;;6.67;;
6823;SDS011;58633;49.470;11.004;2022-12-04T06:16:53;9.77;;;6.67;;
6823;SDS011;58633;49.470;11.004;2022-12-04T06:19:19;9.37;;;6.60;;
6823;SDS011;58633;49.470;11.004;2022-12-04T06:21:47;10.30;;;6.37;;
6823;SDS011;58633;49.470;11.004;2022-12-04T06:24:18;10.00;;;6.70;;
6823;SDS011;58633;49.470;11.004;2022-12-04T06:26:48;8.77;;;6.37;;
6823;SDS011;58633;49.470;11.004;2022-12-04T06:29:14;10.43;;;6.53;;
6823;SDS011;58633;49.470;11.004;2022-12-04T06:31:41;10.23;;;7.00;;
6823;SDS011;58633;49.470;11.004;2022-12-04T06:34:07;9.23;;;6.47;;
6823;SDS011;58633;49.470;11.004;2022-12-04T06:36:33;10.80;;;7.00;;
6823;SDS011;58633;49.470;11.004;2022-12-04T06:38:59;10.23;;;6.73;;
6823;SDS011;58633;49.470;11.004;2022-12-04T06:41:25;9.83;;;6.80;;
6823;SDS011;58633;49.470;11.004;2022-12-04T06:43:52;9.80;;;6.60;;
6823;SDS011;58633;49.470;11.004;2022-12-04T06:46:19;9.53;;;6.47;;
6823;SDS011;58633;49.470;11.004;2022-12-04T06:48:46;9.17;;;6.53;;
6823;SDS011;58633;49.470;11.004;2022-12-04T06:51:14;10.50;;;6.70;;
6823;SDS011;58633;49.470;11.004;2022-12-04T06:53:42;20.07;;;7.23;;
6823;SDS011;58633;49.470;11.004;2022-12-04T06:56:09;10.07;;;6.87;;
6823;SDS011;58633;49.470;11.004;2022-12-04T06:58:36;9.60;;;7.07;;
6823;SDS011;58633;49.470;11.004;2022-12-04T07:01:06;10.73;;;7.37;;
6823;SDS011;58633;49.470;11.004;2022-12-04T07:03:34;11.33;;;7.03;;
6823;SDS011;58633;49.470;11.004;2022-12-04T07:06:13;8.80;;;6.27;;
6823;SDS011;58633;49.470;11.004;2022-12-04T07:08:39;9.30;;;6.07;;
6823;SDS011;58633;49.470;11.004;2022-12-04T07:11:05;11.73;;;7.47;;
6823;SDS011;58633;49.470;11.004;2022-12-04T07:13:31;9.27;;;6.73;;
6823;SDS011;58633;49.470;11.004;2022-12-04T07:16:01;10.40;;;7.13;;
6823;SDS011;58633;49.470;11.004;2022-12-04T07:18:28;8.43;;;6.37;;
6823;SDS011;58633;49.470;11.004;2022-12-04T07:20:55;10.77;;;6.97;;
6823;SDS011;58633;49.470;11.004;2022-12-04T07:23:21;10.23;;;6.47;;
6823;SDS011;58633;49.470;11.004;2022-12-04T07:25:47;14.77;;;6.90;;
6823;SDS011;58633;49.470;11.004;2022-12-04T07:28:12;8.17;;;6.30;;
6823;SDS011;58633;49.470;11.004;2022-12-04T07:30:38;11.07;;;6.70;;
6823;SDS011;58633;49.470;11.004;2022-12-04T07:33:04;9.20;;;6.57;;
6823;SDS011;58633;49.470;11.004;2022-12-04T07:35:30;8.33;;;5.83;;
6823;SDS011;58633;49.470;11.004;2022-12-04T07:37:56;9.20;;;6.63;;
6823;SDS011;58633;49.470;11.004;2022-12-04T07:40:22;10.63;;;6.63;;
6823;SDS011;58633;49.470;11.004;2022-12-04T07:42:48;10.33;;;6.80;;
6823;SDS011;58633;49.470;11.004;2022-12-04T07:45:14;8.83;;;6.20;;
6823;SDS011;58633;49.470;11.004;2022-12-04T07:47:40;8.57;;;6.07;;
6823;SDS011;58633;49.470;11.004;2022-12-04T07:50:06;9.83;;;6.63;;
6823;SDS011;58633;49.470;11.004;2022-12-04T07:52:35;9.03;;;6.03;;
6823;SDS011;58633;49.470;11.004;2022-12-04T07:55:02;9.47;;;6.57;;
6823;SDS011;58633;49.470;11.004;2022-12-04T07:57:31;10.83;;;6.80;;
6823;SDS011;58633;49.470;11.004;2022-12-04T07:59:58;10.33;;;6.97;;
6823;SDS011;58633;49.470;11.004;2022-12-04T08:02:24;11.20;;;6.63;;
6823;SDS011;58633;49.470;11.004;2022-12-04T08:04:50;9.87;;;6.53;;
6823;SDS011;58633;49.470;11.004;2022-12-04T08:07:15;10.30;;;6.87;;
6823;SDS011;58633;49.470;11.004;2022-12-04T08:09:41;10.07;;;6.90;;
6823;SDS011;58633;49.470;11.004;2022-12-04T08:12:07;10.90;;;6.90;;
6823;SDS011;58633;49.470;11.004;2022-12-04T08:14:33;10.43;;;6.47;;
6823;SDS011;58633;49.470;11.004;2022-12-04T08:16:59;11.30;;;6.53;;
6823;SDS011;58633;49.470;11.004;2022-12-04T08:19:25;11.23;;;7.03;;
6823;SDS011;58633;49.470;11.004;2022-12-04T08:21:52;10.27;;;6.67;;
6823;SDS011;58633;49.470;11.004;2022-12-04T08:24:18;10.70;;;7.03;;
6823;SDS011;58633;49.470;11.004;2022-12-04T08:26:44;10.97;;;6.17;;
6823;SDS011;58633;49.470;11.004;2022-12-04T08:29:10;9.40;;;6.03;;
6823;SDS011;58633;49.470;11.004;2022-12-04T08:31:36;10.27;;;6.70;;
6823;SDS011;58633;49.470;11.004;2022-12-04T08:34:03;9.53;;;6.33;;
6823;SDS011;58633;49.470;11.004;2022-12-04T08:36:30;9.80;;;6.33;;
6823;SDS011;58633;49.470;11.004;2022-12-04T08:38:56;9.40;;;6.40;;
6823;SDS011;58633;49.470;11.004;2022-12-04T08:41:23;8.90;;;6.47;;
6823;SDS011;58633;49.470;11.004;2022-12-04T08:43:50;9.07;;;6.17;;
6823;SDS011;58633;49.470;11.004;2022-12-04T08:46:18;8.90;;;6.27;;
6823;SDS011;58633;49.470;11.004;2022-12-04T08:48:44;9.70;;;5.93;;
6823;SDS011;58633;49.470;11.004;2022-12-04T08:51:14;8.97;;;5.97;;
6823;SDS011;58633;49.470;11.004;2022-12-04T08:53:42;7.83;;;5.77;;
6823;SDS011;58633;49.470;11.004;2022-12-04T08:56:08;8.40;;;6.03;;
6823;SDS011;58633;49.470;11.004;2022-12-04T08:58:34;8.90;;;5.80;;
6823;SDS011;58633;49.470;11.004;2022-12-04T09:01:08;7.90;;;5.53;;
6823;SDS011;58633;49.470;11.004;2022-12-04T09:03:35;8.10;;;6.10;;
6823;SDS011;58633;49.470;11.004;2022-12-04T09:06:01;8.33;;;5.77;;
6823;SDS011;58633;49.470;11.004;2022-12-04T09:08:28;8.47;;;5.80;;
6823;SDS011;58633;49.470;11.004;2022-12-04T09:10:54;9.17;;;5.67;;
6823;SDS011;58633;49.470;11.004;2022-12-04T09:13:20;7.73;;;5.33;;
6823;SDS011;58633;49.470;11.004;2022-12-04T09:15:46;8.30;;;5.93;;
6823;SDS011;58633;49.470;11.004;2022-12-04T09:18:11;8.80;;;5.90;;
6823;SDS011;58633;49.470;11.004;2022-12-04T09:20:37;9.33;;;5.97;;
6823;SDS011;58633;49.470;11.004;2022-12-04T09:23:03;9.73;;;5.80;;
6823;SDS011;58633;49.470;11.004;2022-12-04T09:25:29;8.80;;;5.90;;
6823;SDS011;58633;49.470;11.004;2022-12-04T09:27:55;8.97;;;5.80;;
6823;SDS011;58633;49.470;11.004;2022-12-04T09:30:21;10.07;;;5.70;;
6823;SDS011;58633;49.470;11.004;2022-12-04T09:32:47;9.17;;;6.20;;
6823;SDS011;58633;49.470;11.004;2022-12-04T09:35:13;8.77;;;5.97;;
6823;SDS011;58633;49.470;11.004;2022-12-04T09:37:38;9.30;;;6.10;;
6823;SDS011;58633;49.470;11.004;2022-12-04T09:40:05;9.47;;;5.93;;
6823;SDS011;58633;49.470;11.004;2022-12-04T09:45:09;9.23;;;6.47;;
6823;SDS011;58633;49.470;11.004;2022-12-04T09:47:43;10.57;;;6.43;;
6823;SDS011;58633;49.470;11.004;2022-12-04T09:50:14;9.27;;;6.40;;
6823;SDS011;58633;49.470;11.004;2022-12-04T09:55:14;8.07;;;6.20;;
6823;SDS011;58633;49.470;11.004;2022-12-04T09:57:44;9.40;;;5.93;;
6823;SDS011;58633;49.470;11.004;2022-12-04T10:00:13;9.20;;;5.90;;
6823;SDS011;58633;49.470;11.004;2022-12-04T10:02:43;9.60;;;6.40;;
6823;SDS011;58633;49.470;11.004;2022-12-04T10:05:15;8.20;;;5.97;;
6823;SDS011;58633;49.470;11.004;2022-12-04T10:10:37;7.67;;;5.30;;
6823;SDS011;58633;49.470;11.004;2022-12-04T10:18:39;8.30;;;5.60;;
6823;SDS011;58633;49.470;11.004;2022-12-04T10:23:52;9.33;;;5.90;;
6823;SDS011;58633;49.470;11.004;2022-12-04T10:26:32;9.03;;;6.30;;
6823;SDS011;58633;49.470;11.004;2022-12-04T10:29:04;8.47;;;5.90;;
6823;SDS011;58633;49.470;11.004;2022-12-04T10:31:32;8.17;;;5.60;;
6823;SDS011;58633;49.470;11.004;2022-12-04T10:37:04;8.13;;;5.60;;
6823;SDS011;58633;49.470;11.004;2022-12-04T10:39:36;6.80;;;5.20;;
6823;SDS011;58633;49.470;11.004;2022-12-04T10:45:00;7.97;;;5.73;;
6823;SDS011;58633;49.470;11.004;2022-12-04T10:47:25;7.83;;;5.77;;
6823;SDS011;58633;49.470;11.004;2022-12-04T10:49:55;9.27;;;5.87;;
6823;SDS011;58633;49.470;11.004;2022-12-04T10:52:24;8.13;;;5.83;;
6823;SDS011;58633;49.470;11.004;2022-12-04T10:54:59;8.30;;;5.30;;
6823;SDS011;58633;49.470;11.004;2022-12-04T11:00:00;8.47;;;5.63;;
6823;SDS011;58633;49.470;11.004;2022-12-04T11:02:27;7.07;;;5.17;;
6823;SDS011;58633;49.470;11.004;2022-12-04T11:04:55;8.27;;;5.27;;
6823;SDS011;58633;49.470;11.004;2022-12-04T11:07:26;7.60;;;5.70;;
6823;SDS011;58633;49.470;11.004;2022-12-04T11:10:23;7.77;;;5.50;;
6823;SDS011;58633;49.470;11.004;2022-12-04T11:12:59;9.17;;;5.70;;
6823;SDS011;58633;49.470;11.004;2022-12-04T11:15:30;6.87;;;5.00;;
6823;SDS011;58633;49.470;11.004;2022-12-04T11:18:06;8.13;;;5.90;;
6823;SDS011;58633;49.470;11.004;2022-12-04T11:20:48;7.27;;;5.70;;
6823;SDS011;58633;49.470;11.004;2022-12-04T11:23:31;7.47;;;5.37;;
6823;SDS011;58633;49.470;11.004;2022-12-04T11:25:59;6.90;;;5.33;;
6823;SDS011;58633;49.470;11.004;2022-12-04T11:28:29;7.20;;;5.20;;
6823;SDS011;58633;49.470;11.004;2022-12-04T11:30:57;7.27;;;5.50;;
6823;SDS011;58633;49.470;11.004;2022-12-04T11:33:28;6.77;;;5.40;;
6823;SDS011;58633;49.470;11.004;2022-12-04T11:36:23;8.07;;;5.90;;
6823;SDS011;58633;49.470;11.004;2022-12-04T11:38:50;6.50;;;5.27;;
6823;SDS011;58633;49.470;11.004;2022-12-04T11:41:28;7.57;;;5.37;;
6823;SDS011;58633;49.470;11.004;2022-12-04T11:43:55;8.77;;;6.03;;
6823;SDS011;58633;49.470;11.004;2022-12-04T11:46:22;8.90;;;6.27;;
6823;SDS011;58633;49.470;11.004;2022-12-04T11:48:50;7.70;;;5.73;;
6823;SDS011;58633;49.470;11.004;2022-12-04T11:54:02;6.87;;;5.50;;
6823;SDS011;58633;49.470;11.004;2022-12-04T11:56:39;5.87;;;4.60;;
6823;SDS011;58633;49.470;11.004;2022-12-04T12:24:51;7.53;;;5.50;;
6823;SDS011;58633;49.470;11.004;2022-12-04T12:27:26;7.77;;;5.43;;
6823;SDS011;58633;49.470;11.004;2022-12-04T12:30:00;8.17;;;5.33;;
6823;SDS011;58633;49.470;11.004;2022-12-04T12:35:37;8.20;;;5.67;;
6823;SDS011;58633;49.470;11.004;2022-12-04T12:40:36;10.83;;;6.57;;
6823;SDS011;58633;49.470;11.004;2022-12-04T12:45:49;14.97;;;9.53;;
6823;SDS011;58633;49.470;11.004;2022-12-04T12:48:21;24.67;;;13.70;;
6823;SDS011;58633;49.470;11.004;2022-12-04T12:51:05;25.97;;;15.13;;
6823;SDS011;58633;49.470;11.004;2022-12-04T12:53:54;65.13;;;32.97;;
6823;SDS011;58633;49.470;11.004;2022-12-04T12:56:34;32.70;;;17.07;;
6823;SDS011;58633;49.470;11.004;2022-12-04T12:59:05;62.60;;;36.53;;
6823;SDS011;58633;49.470;11.004;2022-12-04T13:01:46;22.60;;;15.90;;
6823;SDS011;58633;49.470;11.004;2022-12-04T13:04:18;15.73;;;11.57;;
6823;SDS011;58633;49.470;11.004;2022-12-04T13:06:52;10.33;;;7.63;;
6823;SDS011;58633;49.470;11.004;2022-12-04T13:09:34;8.17;;;5.97;;
6823;SDS011;58633;49.470;11.004;2022-12-04T13:12:04;9.40;;;6.00;;
6823;SDS011;58633;49.470;11.004;2022-12-04T13:14:33;8.00;;;5.93;;
6823;SDS011;58633;49.470;11.004;2022-12-04T13:17:13;9.33;;;5.80;;
6823;SDS011;58633;49.470;11.004;2022-12-04T13:19:49;8.37;;;5.73;;
6823;SDS011;58633;49.470;11.004;2022-12-04T13:31:19;9.53;;;6.50;;
6823;SDS011;58633;49.470;11.004;2022-12-04T13:42:15;8.77;;;5.77;;
6823;SDS011;58633;49.470;11.004;2022-12-04T13:44:50;7.40;;;5.47;;
6823;SDS011;58633;49.470;11.004;2022-12-04T13:47:28;7.93;;;5.47;;
6823;SDS011;58633;49.470;11.004;2022-12-04T13:50:05;8.03;;;5.90;;
6823;SDS011;58633;49.470;11.004;2022-12-04T13:52:38;7.17;;;5.23;;
6823;SDS011;58633;49.470;11.004;2022-12-04T13:55:27;8.13;;;5.97;;
6823;SDS011;58633;49.470;11.004;2022-12-04T13:58:01;8.87;;;6.10;;
6823;SDS011;58633;49.470;11.004;2022-12-04T14:00:37;8.70;;;6.63;;
6823;SDS011;58633;49.470;11.004;2022-12-04T14:03:20;8.73;;;6.23;;
6823;SDS011;58633;49.470;11.004;2022-12-04T14:05:49;8.73;;;6.53;;
6823;SDS011;58633;49.470;11.004;2022-12-04T14:08:19;9.13;;;6.43;;
6823;SDS011;58633;49.470;11.004;2022-12-04T14:13:41;7.97;;;5.97;;
6823;SDS011;58633;49.470;11.004;2022-12-04T14:16:14;8.73;;;6.17;;
6823;SDS011;58633;49.470;11.004;2022-12-04T14:18:47;9.00;;;6.43;;
6823;SDS011;58633;49.470;11.004;2022-12-04T14:21:16;8.57;;;5.90;;
6823;SDS011;58633;49.470;11.004;2022-12-04T14:23:42;11.50;;;6.93;;
6823;SDS011;58633;49.470;11.004;2022-12-04T14:31:56;15.10;;;8.93;;
6823;SDS011;58633;49.470;11.004;2022-12-04T14:34:28;11.23;;;6.93;;
6823;SDS011;58633;49.470;11.004;2022-12-04T14:36:55;8.70;;;6.03;;
6823;SDS011;58633;49.470;11.004;2022-12-04T14:39:25;9.07;;;6.17;;
6823;SDS011;58633;49.470;11.004;2022-12-04T14:42:01;9.20;;;6.17;;
6823;SDS011;58633;49.470;11.004;2022-12-04T14:44:30;9.07;;;6.47;;
6823;SDS011;58633;49.470;11.004;2022-12-04T14:52:42;7.97;;;6.00;;
6823;SDS011;58633;49.470;11.004;2022-12-04T14:58:11;8.53;;;6.20;;
6823;SDS011;58633;49.470;11.004;2022-12-04T15:01:02;9.17;;;6.37;;
6823;SDS011;58633;49.470;11.004;2022-12-04T15:03:33;7.87;;;5.93;;
6823;SDS011;58633;49.470;11.004;2022-12-04T15:06:07;8.13;;;6.13;;
6823;SDS011;58633;49.470;11.004;2022-12-04T15:08:46;8.70;;;6.00;;
6823;SDS011;58633;49.470;11.004;2022-12-04T15:11:52;10.00;;;6.13;;
6823;SDS011;58633;49.470;11.004;2022-12-04T15:14:39;9.60;;;6.27;;
6823;SDS011;58633;49.470;11.004;2022-12-04T15:17:15;9.30;;;6.30;;
6823;SDS011;58633;49.470;11.004;2022-12-04T15:19:42;10.13;;;6.60;;
6823;SDS011;58633;49.470;11.004;2022-12-04T15:22:11;9.97;;;6.20;;
6823;SDS011;58633;49.470;11.004;2022-12-04T15:24:39;10.33;;;6.60;;
6823;SDS011;58633;49.470;11.004;2022-12-04T15:27:05;11.07;;;6.50;;
6823;SDS011;58633;49.470;11.004;2022-12-04T15:29:31;9.43;;;6.33;;
6823;SDS011;58633;49.470;11.004;2022-12-04T15:32:00;8.53;;;6.40;;
6823;SDS011;58633;49.470;11.004;2022-12-04T15:34:42;11.23;;;7.53;;
6823;SDS011;58633;49.470;11.004;2022-12-04T15:37:14;10.27;;;7.00;;
6823;SDS011;58633;49.470;11.004;2022-12-04T15:39:40;12.57;;;7.33;;
6823;SDS011;58633;49.470;11.004;2022-12-04T15:44:57;11.07;;;7.37;;
6823;SDS011;58633;49.470;11.004;2022-12-04T15:49:53;10.70;;;6.87;;
6823;SDS011;58633;49.470;11.004;2022-12-04T15:52:20;9.17;;;6.73;;
6823;SDS011;58633;49.470;11.004;2022-12-04T15:59:46;12.63;;;7.70;;
6823;SDS011;58633;49.470;11.004;2022-12-04T16:05:09;10.40;;;7.33;;
6823;SDS011;58633;49.470;11.004;2022-12-04T16:07:54;10.47;;;7.40;;
6823;SDS011;58633;49.470;11.004;2022-12-04T16:10:25;10.13;;;7.20;;
6823;SDS011;58633;49.470;11.004;2022-12-04T16:12:56;11.93;;;8.17;;
6823;SDS011;58633;49.470;11.004;2022-12-04T16:15:23;9.57;;;7.23;;
6823;SDS011;58633;49.470;11.004;2022-12-04T16:17:51;12.97;;;7.40;;
6823;SDS011;58633;49.470;11.004;2022-12-04T16:20:18;11.57;;;7.60;;
6823;SDS011;58633;49.470;11.004;2022-12-04T16:22:44;11.37;;;7.60;;
6823;SDS011;58633;49.470;11.004;2022-12-04T16:25:12;13.90;;;8.10;;
6823;SDS011;58633;49.470;11.004;2022-12-04T16:27:38;12.07;;;8.00;;
6823;SDS011;58633;49.470;11.004;2022-12-04T16:30:04;11.83;;;7.97;;
6823;SDS011;58633;49.470;11.004;2022-12-04T16:32:31;11.43;;;7.97;;
6823;SDS011;58633;49.470;11.004;2022-12-04T16:34:57;11.63;;;8.20;;
6823;SDS011;58633;49.470;11.004;2022-12-04T16:37:24;11.60;;;8.40;;
6823;SDS011;58633;49.470;11.004;2022-12-04T16:39:51;14.27;;;8.00;;
6823;SDS011;58633;49.470;11.004;2022-12-04T16:42:18;14.07;;;8.80;;
6823;SDS011;58633;49.470;11.004;2022-12-04T16:44:49;13.17;;;8.80;;
6823;SDS011;58633;49.470;11.004;2022-12-04T16:47:15;12.10;;;7.77;;
6823;SDS011;58633;49.470;11.004;2022-12-04T16:49:42;13.00;;;8.40;;
6823;SDS011;58633;49.470;11.004;2022-12-04T16:52:09;11.73;;;8.27;;
6823;SDS011;58633;49.470;11.004;2022-12-04T16:54:35;13.57;;;9.10;;
6823;SDS011;58633;49.470;11.004;2022-12-04T16:57:02;12.27;;;8.17;;
6823;SDS011;58633;49.470;11.004;2022-12-04T16:59:28;12.93;;;8.90;;
6823;SDS011;58633;49.470;11.004;2022-12-04T17:01:54;12.40;;;8.40;;
6823;SDS011;58633;49.470;11.004;2022-12-04T17:04:20;10.97;;;7.90;;
6823;SDS011;58633;49.470;11.004;2022-12-04T17:06:46;12.23;;;8.70;;
6823;SDS011;58633;49.470;11.004;2022-12-04T17:09:12;10.50;;;7.50;;
6823;SDS011;58633;49.470;11.004;2022-12-04T17:11:38;11.87;;;7.37;;
6823;SDS011;58633;49.470;11.004;2022-12-04T17:14:05;11.10;;;7.97;;
6823;SDS011;58633;49.470;11.004;2022-12-04T17:16:38;11.27;;;7.27;;